Time;durP1;ratioP1;P1;durP2;ratioP2;P2;SDS_P1;SDS_P2;PMS_P1;PMS_P2;Temp;Humidity;BMP_temperature;BMP_pressure;BME280_temperature;BME280_humidity;BME280_pressure;Samples;Min_cycle;Max_cycle;Signal;HPM_P1;HPM_P2
2023/06/06 00:02:11;;;;;;;11.95;5.50;;;;;;;;;;4953986;28;20058;-58
2023/06/06 00:04:38;;;;;;;13.05;5.47;;;;;;;;;;4955203;28;20097;-58
2023/06/06 00:07:08;;;;;;;12.68;5.70;;;;;;;;;;4934509;28;20549;-58
2023/06/06 00:09:34;;;;;;;12.98;5.00;;;;;;;;;;4948150;28;20043;-58
2023/06/06 00:12:00;;;;;;;13.55;5.60;;;;;;;;;;4947048;28;20050;-58
2023/06/06 00:14:31;;;;;;;11.52;5.45;;;;;;;;;;4954540;28;20043;-59
2023/06/06 00:16:58;;;;;;;12.23;5.82;;;;;;;;;;4955564;28;20124;-58
2023/06/06 00:19:24;;;;;;;10.98;5.28;;;;;;;;;;4952052;28;20567;-59
2023/06/06 00:21:51;;;;;;;12.82;6.20;;;;;;;;;;4954649;28;20481;-59
2023/06/06 00:24:18;;;;;;;14.88;5.22;;;;;;;;;;4954762;28;20260;-58
2023/06/06 00:26:44;;;;;;;9.30;5.40;;;;;;;;;;4937760;28;20043;-57
2023/06/06 00:29:10;;;;;;;12.07;5.60;;;;;;;;;;4952760;28;20415;-58
2023/06/06 00:31:36;;;;;;;11.43;5.68;;;;;;;;;;4950396;28;20409;-58
2023/06/06 00:34:02;;;;;;;13.68;6.10;;;;;;;;;;4936870;28;20113;-58
2023/06/06 00:36:28;;;;;;;11.77;5.47;;;;;;;;;;4937637;28;20153;-59
2023/06/06 00:38:54;;;;;;;12.70;5.82;;;;;;;;;;4938149;28;20054;-58
2023/06/06 00:41:20;;;;;;;12.75;6.60;;;;;;;;;;4951225;28;20094;-57
2023/06/06 00:43:47;;;;;;;13.77;5.70;;;;;;;;;;4936958;28;20050;-58
2023/06/06 00:46:13;;;;;;;11.57;5.80;;;;;;;;;;4952867;28;20089;-58
2023/06/06 00:48:39;;;;;;;16.35;6.18;;;;;;;;;;4937002;28;20545;-58
2023/06/06 00:51:08;;;;;;;12.48;5.95;;;;;;;;;;4953316;28;20795;-58
2023/06/06 00:53:34;;;;;;;11.98;5.55;;;;;;;;;;4932099;28;20065;-57
2023/06/06 00:56:00;;;;;;;13.18;6.30;;;;;;;;;;4977731;23;20062;-57
2023/06/06 00:58:27;;;;;;;11.50;5.45;;;;;;;;;;4943204;29;20043;-58
2023/06/06 01:00:53;;;;;;;12.45;5.68;;;;;;;;;;4943447;29;20074;-58
2023/06/06 01:03:19;;;;;;;12.38;5.63;;;;;;;;;;4940517;28;20268;-56
2023/06/06 01:05:47;;;;;;;11.02;5.35;;;;;;;;;;4924216;29;20088;-60
2023/06/06 01:08:13;;;;;;;9.82;5.22;;;;;;;;;;4935432;29;20154;-59
2023/06/06 01:10:40;;;;;;;11.30;5.22;;;;;;;;;;4917567;29;20050;-59
2023/06/06 01:13:11;;;;;;;10.80;5.43;;;;;;;;;;4895845;29;20047;-58
2023/06/06 01:15:43;;;;;;;10.43;5.30;;;;;;;;;;4933055;29;20079;-60
2023/06/06 01:18:11;;;;;;;12.52;5.75;;;;;;;;;;4917955;29;20058;-59
2023/06/06 01:20:37;;;;;;;11.05;5.28;;;;;;;;;;4918411;29;20417;-60
2023/06/06 01:23:03;;;;;;;11.63;5.88;;;;;;;;;;4914579;29;20387;-58
2023/06/06 01:25:30;;;;;;;10.13;5.78;;;;;;;;;;4926809;28;20326;-59
2023/06/06 01:27:56;;;;;;;11.40;5.43;;;;;;;;;;4905543;29;20047;-58
2023/06/06 01:30:24;;;;;;;9.88;5.72;;;;;;;;;;4938563;29;20043;-58
2023/06/06 01:33:02;;;;;;;12.32;5.75;;;;;;;;;;4937748;29;20046;-59
2023/06/06 01:35:31;;;;;;;11.98;6.15;;;;;;;;;;4938139;29;20098;-59
2023/06/06 01:38:04;;;;;;;10.77;5.97;;;;;;;;;;4934049;29;20050;-59
2023/06/06 01:40:32;;;;;;;11.32;6.05;;;;;;;;;;4930886;29;20114;-57
2023/06/06 01:42:58;;;;;;;13.65;5.30;;;;;;;;;;4934270;29;20043;-58
2023/06/06 01:45:28;;;;;;;10.05;4.93;;;;;;;;;;4920387;29;20047;-57
2023/06/06 01:47:55;;;;;;;12.13;5.88;;;;;;;;;;4929523;29;20051;-56
2023/06/06 01:50:21;;;;;;;10.10;5.75;;;;;;;;;;4936064;28;20085;-57
2023/06/06 01:52:47;;;;;;;12.20;5.93;;;;;;;;;;4937718;28;20035;-58
2023/06/06 01:55:14;;;;;;;13.43;6.38;;;;;;;;;;4938115;29;20109;-58
2023/06/06 01:57:40;;;;;;;12.20;5.72;;;;;;;;;;4935316;29;20548;-59
2023/06/06 02:00:08;;;;;;;10.95;5.65;;;;;;;;;;4919060;29;20055;-57
2023/06/06 02:02:34;;;;;;;13.02;5.88;;;;;;;;;;4929664;28;20055;-57
2023/06/06 02:05:00;;;;;;;14.15;6.28;;;;;;;;;;4938255;29;20054;-59
2023/06/06 02:07:27;;;;;;;11.95;6.00;;;;;;;;;;4937737;29;20508;-58
2023/06/06 02:09:53;;;;;;;13.50;6.05;;;;;;;;;;4935819;29;20031;-58
2023/06/06 02:12:19;;;;;;;15.20;6.50;;;;;;;;;;4936471;28;20070;-58
2023/06/06 02:14:45;;;;;;;10.70;6.05;;;;;;;;;;4920273;29;20064;-57
2023/06/06 02:17:11;;;;;;;11.55;6.35;;;;;;;;;;4938105;29;20517;-58
2023/06/06 02:19:37;;;;;;;10.60;5.38;;;;;;;;;;4936778;29;20039;-58
2023/06/06 02:22:04;;;;;;;10.57;6.88;;;;;;;;;;4932929;29;20037;-58
2023/06/06 02:24:30;;;;;;;12.15;6.10;;;;;;;;;;4937080;29;20035;-58
2023/06/06 02:26:56;;;;;;;9.75;5.20;;;;;;;;;;4937743;29;20095;-57
2023/06/06 02:29:23;;;;;;;12.55;6.78;;;;;;;;;;4920199;29;20051;-58
2023/06/06 02:31:49;;;;;;;11.43;6.50;;;;;;;;;;4934731;29;20520;-58
2023/06/06 02:34:16;;;;;;;16.52;6.53;;;;;;;;;;4937069;28;20042;-57
2023/06/06 02:36:42;;;;;;;12.70;5.55;;;;;;;;;;4937701;28;20043;-59
2023/06/06 02:39:08;;;;;;;10.98;5.65;;;;;;;;;;4936977;29;20043;-57
2023/06/06 02:41:34;;;;;;;12.27;5.63;;;;;;;;;;4933463;29;20035;-58
2023/06/06 02:44:01;;;;;;;17.58;6.22;;;;;;;;;;4917305;29;20050;-58
2023/06/06 02:46:27;;;;;;;9.57;5.00;;;;;;;;;;4936066;29;20798;-57
2023/06/06 02:48:53;;;;;;;13.10;6.18;;;;;;;;;;4937383;29;20055;-59
2023/06/06 02:51:20;;;;;;;11.68;5.63;;;;;;;;;;4934383;29;20051;-59
2023/06/06 02:53:46;;;;;;;13.50;8.40;;;;;;;;;;4914035;29;20054;-58
2023/06/06 02:56:14;;;;;;;11.27;6.18;;;;;;;;;;4936576;29;20088;-57
2023/06/06 02:58:40;;;;;;;13.05;6.65;;;;;;;;;;4937166;29;20054;-58
2023/06/06 03:01:09;;;;;;;10.63;6.07;;;;;;;;;;4937425;29;20130;-58
2023/06/06 03:03:35;;;;;;;11.15;6.20;;;;;;;;;;4933466;28;20063;-57
2023/06/06 03:06:01;;;;;;;11.95;6.72;;;;;;;;;;4921944;28;20521;-58
2023/06/06 03:08:27;;;;;;;10.40;6.25;;;;;;;;;;4923519;28;20134;-58
2023/06/06 03:10:53;;;;;;;13.70;7.32;;;;;;;;;;4924977;29;20046;-57
2023/06/06 03:13:20;;;;;;;11.27;6.25;;;;;;;;;;4925857;28;20047;-60
2023/06/06 03:15:46;;;;;;;12.63;6.25;;;;;;;;;;4934971;29;20101;-59
2023/06/06 03:18:16;;;;;;;11.52;5.75;;;;;;;;;;4937038;29;20464;-60
2023/06/06 03:20:44;;;;;;;12.70;5.80;;;;;;;;;;4936096;29;20902;-59
2023/06/06 03:23:11;;;;;;;12.35;6.47;;;;;;;;;;4929315;28;20587;-59
2023/06/06 03:25:40;;;;;;;11.65;6.38;;;;;;;;;;4935975;29;20150;-60
2023/06/06 03:28:06;;;;;;;10.63;6.45;;;;;;;;;;4937108;29;20055;-60
2023/06/06 03:30:32;;;;;;;12.63;7.10;;;;;;;;;;4936380;29;20035;-60
2023/06/06 03:33:00;;;;;;;14.45;6.18;;;;;;;;;;4918737;29;20505;-60
2023/06/06 03:35:26;;;;;;;13.05;7.20;;;;;;;;;;4933111;29;20051;-59
2023/06/06 03:37:55;;;;;;;12.02;5.70;;;;;;;;;;4936108;29;20114;-59
2023/06/06 03:40:22;;;;;;;13.27;6.57;;;;;;;;;;4936158;29;20078;-58
2023/06/06 03:42:49;;;;;;;13.65;7.03;;;;;;;;;;4935025;28;20047;-60
2023/06/06 03:45:16;;;;;;;9.23;5.90;;;;;;;;;;4934970;29;20051;-59
2023/06/06 03:47:42;;;;;;;10.68;5.80;;;;;;;;;;4930034;29;20047;-59
2023/06/06 03:50:08;;;;;;;14.35;6.05;;;;;;;;;;4935915;28;20046;-59
2023/06/06 03:52:34;;;;;;;11.15;5.88;;;;;;;;;;4934981;29;20540;-59
2023/06/06 03:55:00;;;;;;;13.35;5.88;;;;;;;;;;4919122;29;20043;-59
2023/06/06 03:57:26;;;;;;;14.43;7.57;;;;;;;;;;4916744;29;20047;-60
2023/06/06 03:59:52;;;;;;;14.80;6.80;;;;;;;;;;4936397;29;20756;-60
2023/06/06 04:02:18;;;;;;;14.70;6.18;;;;;;;;;;4935317;28;20047;-59
2023/06/06 04:04:45;;;;;;;10.80;5.82;;;;;;;;;;4918825;29;20078;-60
2023/06/06 04:07:11;;;;;;;12.95;5.90;;;;;;;;;;4931303;29;20094;-57
2023/06/06 04:09:39;;;;;;;16.27;6.10;;;;;;;;;;4936142;29;20137;-58
2023/06/06 04:12:06;;;;;;;15.50;6.13;;;;;;;;;;4935625;28;20288;-60
2023/06/06 04:14:32;;;;;;;12.32;6.45;;;;;;;;;;4936050;29;20047;-59
2023/06/06 04:16:58;;;;;;;13.10;6.55;;;;;;;;;;4936228;29;20121;-57
2023/06/06 04:19:24;;;;;;;11.55;6.32;;;;;;;;;;4932903;29;20051;-59
2023/06/06 04:21:51;;;;;;;14.25;7.45;;;;;;;;;;4934785;29;20042;-57
2023/06/06 04:24:17;;;;;;;14.02;6.20;;;;;;;;;;4935883;28;20149;-59
2023/06/06 04:26:43;;;;;;;13.27;7.65;;;;;;;;;;4916808;29;20054;-58
2023/06/06 04:29:12;;;;;;;11.95;6.95;;;;;;;;;;4936103;29;20066;-58
2023/06/06 04:31:44;;;;;;;12.10;6.43;;;;;;;;;;4934995;28;20051;-59
2023/06/06 04:34:12;;;;;;;15.80;6.75;;;;;;;;;;4934187;28;20773;-59
2023/06/06 04:36:40;;;;;;;10.85;5.75;;;;;;;;;;4934796;28;20106;-57
2023/06/06 04:39:07;;;;;;;13.90;6.10;;;;;;;;;;4935809;29;20909;-60
2023/06/06 04:41:33;;;;;;;10.93;6.13;;;;;;;;;;4935016;29;20047;-60
2023/06/06 04:44:02;;;;;;;12.38;5.80;;;;;;;;;;4931784;28;20050;-58
2023/06/06 04:46:29;;;;;;;13.73;6.72;;;;;;;;;;4913094;29;20048;-60
2023/06/06 04:48:56;;;;;;;12.98;6.35;;;;;;;;;;4936013;29;21007;-60
2023/06/06 04:51:29;;;;;;;14.43;6.63;;;;;;;;;;4911082;29;20163;-59
2023/06/06 04:54:03;;;;;;;15.95;6.57;;;;;;;;;;4908575;29;20306;-60
2023/06/06 04:56:29;;;;;;;14.68;6.22;;;;;;;;;;4932848;29;20059;-59
2023/06/06 04:59:06;;;;;;;11.63;6.53;;;;;;;;;;4924272;29;20047;-58
2023/06/06 05:01:36;;;;;;;11.50;6.30;;;;;;;;;;4916035;29;20105;-59
2023/06/06 05:04:05;;;;;;;13.73;6.60;;;;;;;;;;4921983;29;20071;-59
2023/06/06 05:06:31;;;;;;;13.23;6.07;;;;;;;;;;4920082;29;20035;-59
2023/06/06 05:08:59;;;;;;;15.57;6.63;;;;;;;;;;4932475;29;20126;-59
2023/06/06 05:11:26;;;;;;;14.77;7.47;;;;;;;;;;4936219;29;20383;-59
2023/06/06 05:13:52;;;;;;;11.30;5.72;;;;;;;;;;4933369;28;20492;-59
2023/06/06 05:16:19;;;;;;;12.93;5.93;;;;;;;;;;4936256;29;20050;-58
2023/06/06 05:18:45;;;;;;;14.25;6.38;;;;;;;;;;4939721;29;20047;-58
2023/06/06 05:21:11;;;;;;;13.88;6.13;;;;;;;;;;4938937;29;20047;-59
2023/06/06 05:23:37;;;;;;;10.77;5.35;;;;;;;;;;4939109;28;20540;-58
2023/06/06 05:26:03;;;;;;;11.88;5.32;;;;;;;;;;4938485;29;20101;-58
2023/06/06 05:28:30;;;;;;;11.65;4.95;;;;;;;;;;4921050;29;20105;-57
2023/06/06 05:31:00;;;;;;;11.45;5.30;;;;;;;;;;4938813;29;20390;-58
2023/06/06 05:33:26;;;;;;;12.65;4.65;;;;;;;;;;4937951;28;20060;-57
2023/06/06 05:35:53;;;;;;;10.32;4.88;;;;;;;;;;4939959;29;20130;-57
2023/06/06 05:38:19;;;;;;;12.00;5.03;;;;;;;;;;4938807;29;20106;-58
2023/06/06 05:40:45;;;;;;;13.05;5.93;;;;;;;;;;4937919;28;20043;-57
2023/06/06 05:43:13;;;;;;;12.38;5.28;;;;;;;;;;4919923;29;20058;-57
2023/06/06 05:45:39;;;;;;;12.18;5.47;;;;;;;;;;4937934;28;20043;-56
2023/06/06 05:48:06;;;;;;;12.63;5.25;;;;;;;;;;4938842;29;20978;-58
2023/06/06 05:50:32;;;;;;;10.88;4.90;;;;;;;;;;4937716;29;20035;-58
2023/06/06 05:52:58;;;;;;;10.15;4.80;;;;;;;;;;4904268;29;20102;-58
2023/06/06 05:55:28;;;;;;;14.55;5.30;;;;;;;;;;4938132;29;20057;-58
2023/06/06 05:57:55;;;;;;;13.07;5.25;;;;;;;;;;4938087;28;20461;-57
2023/06/06 06:00:22;;;;;;;7.78;4.50;;;;;;;;;;4920764;29;20058;-58
2023/06/06 06:02:51;;;;;;;9.52;4.93;;;;;;;;;;4937121;28;20057;-57
2023/06/06 06:05:18;;;;;;;9.45;4.95;;;;;;;;;;4938069;29;20416;-58
2023/06/06 06:07:44;;;;;;;9.15;5.22;;;;;;;;;;4937877;29;20054;-56
2023/06/06 06:10:10;;;;;;;14.30;4.68;;;;;;;;;;4920540;29;20772;-56
2023/06/06 06:12:36;;;;;;;12.73;4.20;;;;;;;;;;4935680;28;20047;-57
2023/06/06 06:15:03;;;;;;;9.63;4.25;;;;;;;;;;4936637;29;20054;-55
2023/06/06 06:17:29;;;;;;;9.57;4.55;;;;;;;;;;4936289;29;20297;-57
2023/06/06 06:19:55;;;;;;;10.90;4.57;;;;;;;;;;4936236;29;20043;-57
2023/06/06 06:22:22;;;;;;;12.18;4.35;;;;;;;;;;4935412;28;21100;-56
2023/06/06 06:24:49;;;;;;;8.73;4.22;;;;;;;;;;4919173;29;20055;-56
2023/06/06 06:27:15;;;;;;;8.68;3.83;;;;;;;;;;4936139;29;20055;-56
2023/06/06 06:29:41;;;;;;;9.73;4.90;;;;;;;;;;4918730;29;20047;-57
2023/06/06 06:32:07;;;;;;;9.45;4.00;;;;;;;;;;4918532;28;20043;-57
2023/06/06 06:34:33;;;;;;;11.25;4.10;;;;;;;;;;4936131;29;20847;-57
2023/06/06 06:36:59;;;;;;;10.27;4.10;;;;;;;;;;4935625;29;20643;-57
2023/06/06 06:39:26;;;;;;;9.60;3.55;;;;;;;;;;4918619;29;20059;-57
2023/06/06 06:41:52;;;;;;;11.15;3.58;;;;;;;;;;4935174;29;20046;-57
2023/06/06 06:44:19;;;;;;;8.27;3.50;;;;;;;;;;4915023;29;20278;-57
2023/06/06 06:46:45;;;;;;;10.65;3.75;;;;;;;;;;4918591;29;20074;-57
2023/06/06 06:49:17;;;;;;;8.18;3.80;;;;;;;;;;4935717;29;20043;-57
2023/06/06 06:51:44;;;;;;;6.75;3.50;;;;;;;;;;4917657;29;20101;-57
2023/06/06 06:54:13;;;;;;;9.75;3.67;;;;;;;;;;4934966;29;20077;-57
2023/06/06 06:56:42;;;;;;;10.18;4.50;;;;;;;;;;4933431;29;20055;-56
2023/06/06 06:59:09;;;;;;;7.82;3.72;;;;;;;;;;4935296;29;20055;-57
2023/06/06 07:01:37;;;;;;;7.88;4.00;;;;;;;;;;4916350;29;20435;-56
2023/06/06 07:04:05;;;;;;;8.55;3.72;;;;;;;;;;4935641;29;20105;-56
2023/06/06 07:06:33;;;;;;;9.27;4.15;;;;;;;;;;4917050;29;20061;-56
2023/06/06 07:09:00;;;;;;;10.27;3.95;;;;;;;;;;4935273;28;20589;-55
2023/06/06 07:11:26;;;;;;;9.80;3.67;;;;;;;;;;4917039;29;20122;-56
2023/06/06 07:13:53;;;;;;;9.02;4.25;;;;;;;;;;4934078;29;20031;-55
2023/06/06 07:16:20;;;;;;;9.20;3.72;;;;;;;;;;4918207;29;20604;-56
2023/06/06 07:18:47;;;;;;;8.23;3.40;;;;;;;;;;4933721;29;20047;-56
2023/06/06 07:21:13;;;;;;;11.23;4.35;;;;;;;;;;4933914;29;20649;-57
2023/06/06 07:23:39;;;;;;;12.25;4.25;;;;;;;;;;4933770;28;20509;-57
2023/06/06 07:26:06;;;;;;;9.68;4.20;;;;;;;;;;4935120;29;20051;-55
2023/06/06 07:28:33;;;;;;;11.35;4.95;;;;;;;;;;4934515;29;20059;-56
2023/06/06 07:30:59;;;;;;;14.77;4.90;;;;;;;;;;4934634;28;20047;-57
2023/06/06 07:33:26;;;;;;;9.68;3.83;;;;;;;;;;4933179;28;20058;-56
2023/06/06 07:35:52;;;;;;;8.13;3.42;;;;;;;;;;4918168;29;20575;-55
2023/06/06 07:38:18;;;;;;;6.95;3.60;;;;;;;;;;4934844;29;20509;-56
2023/06/06 07:40:45;;;;;;;9.55;3.97;;;;;;;;;;4917644;29;20248;-57
2023/06/06 07:43:11;;;;;;;8.73;4.30;;;;;;;;;;4934411;28;20441;-56
2023/06/06 07:45:37;;;;;;;8.90;3.85;;;;;;;;;;4917811;29;20585;-57
2023/06/06 07:48:04;;;;;;;8.52;3.72;;;;;;;;;;4930065;29;20043;-55
2023/06/06 07:50:30;;;;;;;9.43;3.95;;;;;;;;;;4917501;29;20073;-57
2023/06/06 07:52:56;;;;;;;8.40;3.63;;;;;;;;;;4934413;28;20160;-56
2023/06/06 07:55:24;;;;;;;8.90;4.05;;;;;;;;;;4917686;29;20039;-57
2023/06/06 07:57:51;;;;;;;6.85;4.18;;;;;;;;;;4934740;29;20575;-57
2023/06/06 08:00:17;;;;;;;10.35;3.95;;;;;;;;;;4917487;29;20047;-55
2023/06/06 08:02:43;;;;;;;7.82;3.78;;;;;;;;;;4916871;29;20833;-57
2023/06/06 08:05:10;;;;;;;8.95;4.65;;;;;;;;;;4935568;29;20050;-56
2023/06/06 08:07:38;;;;;;;9.20;3.85;;;;;;;;;;4934514;29;20051;-56
2023/06/06 08:10:06;;;;;;;6.90;3.65;;;;;;;;;;4935091;29;20043;-57
2023/06/06 08:12:32;;;;;;;7.22;3.85;;;;;;;;;;4916766;29;20058;-57
2023/06/06 08:14:59;;;;;;;8.20;3.53;;;;;;;;;;4936743;29;20039;-56
2023/06/06 08:17:25;;;;;;;7.90;3.80;;;;;;;;;;4938272;29;20043;-55
2023/06/06 08:19:51;;;;;;;10.13;4.03;;;;;;;;;;4920517;29;20031;-57
2023/06/06 08:22:17;;;;;;;7.97;3.95;;;;;;;;;;4937022;28;20054;-57
2023/06/06 08:24:43;;;;;;;13.10;4.93;;;;;;;;;;4902770;29;20125;-57
2023/06/06 08:27:13;;;;;;;13.95;4.47;;;;;;;;;;4934897;29;20043;-57
2023/06/06 08:29:39;;;;;;;9.20;4.40;;;;;;;;;;4934590;29;20061;-55
2023/06/06 08:32:08;;;;;;;10.48;4.03;;;;;;;;;;4933755;28;20051;-56
2023/06/06 08:34:34;;;;;;;11.48;5.47;;;;;;;;;;4934720;29;20062;-58
2023/06/06 08:37:00;;;;;;;9.32;4.35;;;;;;;;;;4934518;29;20548;-58
2023/06/06 08:39:26;;;;;;;10.63;4.78;;;;;;;;;;4934846;29;20066;-56
2023/06/06 08:41:53;;;;;;;9.40;4.10;;;;;;;;;;4933720;29;20086;-57
2023/06/06 08:44:22;;;;;;;12.35;4.90;;;;;;;;;;4930004;29;20043;-56
2023/06/06 08:46:57;;;;;;;19.27;4.63;;;;;;;;;;4917029;29;20043;-58
2023/06/06 08:49:25;;;;;;;9.60;4.30;;;;;;;;;;4917371;29;20087;-57
2023/06/06 08:51:51;;;;;;;9.50;4.95;;;;;;;;;;4932503;29;20066;-58
2023/06/06 08:54:21;;;;;;;7.60;4.05;;;;;;;;;;4934065;29;20129;-58
2023/06/06 08:56:47;;;;;;;13.57;4.47;;;;;;;;;;4933954;29;20133;-57
2023/06/06 08:59:14;;;;;;;12.65;4.65;;;;;;;;;;4916769;29;20051;-56
2023/06/06 09:01:40;;;;;;;11.82;4.68;;;;;;;;;;4933406;29;20071;-57
2023/06/06 09:04:07;;;;;;;11.95;4.65;;;;;;;;;;4934252;29;20052;-57
2023/06/06 09:06:43;;;;;;;9.32;4.43;;;;;;;;;;4934368;29;20039;-56
2023/06/06 09:09:10;;;;;;;9.35;4.55;;;;;;;;;;4935045;29;20647;-55
2023/06/06 09:11:36;;;;;;;10.82;4.60;;;;;;;;;;4934071;29;20074;-58
2023/06/06 09:14:04;;;;;;;12.43;5.88;;;;;;;;;;4901262;29;20553;-58
2023/06/06 09:16:31;;;;;;;9.45;4.65;;;;;;;;;;4934048;29;20114;-58
2023/06/06 09:18:58;;;;;;;9.35;4.30;;;;;;;;;;4934562;29;20141;-59
2023/06/06 09:21:28;;;;;;;10.05;4.82;;;;;;;;;;4933614;29;20054;-59
2023/06/06 09:23:54;;;;;;;11.20;4.93;;;;;;;;;;4932355;29;20548;-58
2023/06/06 09:26:21;;;;;;;10.38;4.60;;;;;;;;;;4917388;29;20047;-59
2023/06/06 09:28:48;;;;;;;9.13;4.93;;;;;;;;;;4916493;29;20099;-59
2023/06/06 09:31:23;;;;;;;11.77;5.25;;;;;;;;;;4933602;29;20497;-58
2023/06/06 09:33:50;;;;;;;8.50;4.13;;;;;;;;;;4916237;29;20393;-60
2023/06/06 09:36:16;;;;;;;11.75;4.65;;;;;;;;;;4934383;29;20150;-59
2023/06/06 09:38:42;;;;;;;8.77;4.80;;;;;;;;;;4933930;29;20363;-59
2023/06/06 09:41:08;;;;;;;8.73;4.40;;;;;;;;;;4934114;29;20054;-59
2023/06/06 09:43:37;;;;;;;9.60;4.82;;;;;;;;;;4933285;28;20446;-59
2023/06/06 09:46:05;;;;;;;9.77;4.90;;;;;;;;;;4927726;28;20043;-59
2023/06/06 09:48:32;;;;;;;9.55;4.72;;;;;;;;;;4937417;29;20066;-58
2023/06/06 09:50:58;;;;;;;12.50;4.97;;;;;;;;;;4920177;29;20547;-59
2023/06/06 09:53:25;;;;;;;9.70;4.55;;;;;;;;;;4936891;28;20385;-59
2023/06/06 09:55:51;;;;;;;11.55;4.85;;;;;;;;;;4937319;29;20062;-59
2023/06/06 09:58:20;;;;;;;9.43;4.78;;;;;;;;;;4920203;29;20083;-58
2023/06/06 10:00:47;;;;;;;8.38;4.65;;;;;;;;;;4919612;29;20055;-58
2023/06/06 10:03:18;;;;;;;9.30;4.30;;;;;;;;;;4919234;29;20051;-58
2023/06/06 10:05:50;;;;;;;11.15;5.03;;;;;;;;;;4937381;29;20047;-59
2023/06/06 10:08:21;;;;;;;8.70;4.20;;;;;;;;;;4937519;29;20051;-60
2023/06/06 10:10:49;;;;;;;11.63;4.65;;;;;;;;;;4937163;29;20043;-58
2023/06/06 10:13:16;;;;;;;8.32;4.35;;;;;;;;;;4936188;29;20110;-59
2023/06/06 10:15:42;;;;;;;9.15;4.93;;;;;;;;;;4937020;29;20476;-60
2023/06/06 10:18:12;;;;;;;11.05;5.18;;;;;;;;;;4937028;29;20075;-57
2023/06/06 10:20:39;;;;;;;11.15;4.88;;;;;;;;;;4937111;29;20046;-58
2023/06/06 10:23:05;;;;;;;10.85;4.90;;;;;;;;;;4936447;29;20079;-58
2023/06/06 10:25:32;;;;;;;9.00;4.68;;;;;;;;;;4937083;29;20039;-57
2023/06/06 10:28:17;;;;;;;11.52;5.00;;;;;;;;;;4936450;29;20175;-57
2023/06/06 10:30:43;;;;;;;12.35;5.40;;;;;;;;;;4934446;29;20353;-57
2023/06/06 10:33:17;;;;;;;9.25;5.53;;;;;;;;;;4936242;28;20129;-56
2023/06/06 10:35:44;;;;;;;11.35;5.28;;;;;;;;;;4903571;29;20058;-57
2023/06/06 10:38:10;;;;;;;11.27;5.63;;;;;;;;;;4920128;29;20170;-57
2023/06/06 10:40:41;;;;;;;14.70;6.43;;;;;;;;;;4936284;29;21048;-57
2023/06/06 10:43:07;;;;;;;11.13;6.60;;;;;;;;;;4935545;28;20055;-57
2023/06/06 10:45:41;;;;;;;14.63;6.40;;;;;;;;;;4918880;29;20051;-57
2023/06/06 10:48:07;;;;;;;11.38;5.68;;;;;;;;;;4930042;29;20047;-57
2023/06/06 10:50:33;;;;;;;11.35;6.03;;;;;;;;;;4936803;29;20468;-57
2023/06/06 10:53:06;;;;;;;14.77;6.63;;;;;;;;;;4918206;29;20159;-57
2023/06/06 10:55:35;;;;;;;12.60;6.18;;;;;;;;;;4935812;29;20509;-58
2023/06/06 10:58:06;;;;;;;14.38;6.68;;;;;;;;;;4928103;28;20114;-57
2023/06/06 11:00:33;;;;;;;14.18;6.63;;;;;;;;;;4936337;29;20059;-56
2023/06/06 11:03:09;;;;;;;12.20;6.78;;;;;;;;;;4902279;29;20476;-58
2023/06/06 11:05:53;;;;;;;10.43;6.72;;;;;;;;;;4936276;29;20047;-58
2023/06/06 11:08:19;;;;;;;;;;;;;;;;;;4919303;29;20109;-57
2023/06/06 11:10:46;;;;;;;10.45;6.75;;;;;;;;;;4936649;29;20510;-58
2023/06/06 11:13:26;;;;;;;12.75;6.07;;;;;;;;;;4917750;29;20125;-57
2023/06/06 11:15:58;;;;;;;10.63;6.15;;;;;;;;;;4918784;29;20109;-58
2023/06/06 11:18:44;;;;;;;14.25;5.90;;;;;;;;;;4936084;29;20900;-58
2023/06/06 11:21:11;;;;;;;12.23;5.55;;;;;;;;;;4912310;29;20055;-58
2023/06/06 11:23:41;;;;;;;11.18;6.25;;;;;;;;;;4918330;29;20070;-58
2023/06/06 11:26:10;;;;;;;10.25;5.45;;;;;;;;;;4919505;29;20094;-57
2023/06/06 11:28:37;;;;;;;11.75;6.05;;;;;;;;;;4936006;29;20039;-57
2023/06/06 11:31:04;;;;;;;12.70;5.40;;;;;;;;;;4927072;29;20557;-57
2023/06/06 11:33:30;;;;;;;11.52;6.13;;;;;;;;;;4931603;28;20055;-58
2023/06/06 11:35:56;;;;;;;9.65;5.15;;;;;;;;;;4935009;29;20556;-57
2023/06/06 11:38:22;;;;;;;12.38;5.18;;;;;;;;;;4935489;29;20070;-56
2023/06/06 11:40:48;;;;;;;9.10;4.50;;;;;;;;;;4934847;29;20142;-58
2023/06/06 11:43:14;;;;;;;10.57;4.95;;;;;;;;;;4931422;28;20122;-58
2023/06/06 11:45:40;;;;;;;12.75;4.95;;;;;;;;;;4934269;28;20062;-57
2023/06/06 11:48:23;;;;;;;8.43;4.85;;;;;;;;;;4934932;28;20047;-56
2023/06/06 11:50:50;;;;;;;10.15;4.90;;;;;;;;;;4934313;28;20050;-58
2023/06/06 11:53:35;;;;;;;11.77;4.63;;;;;;;;;;4933364;28;20054;-58
2023/06/06 11:56:01;;;;;;;11.77;5.03;;;;;;;;;;4901118;29;20681;-58
2023/06/06 11:58:29;;;;;;;9.10;5.30;;;;;;;;;;4931241;28;20043;-57
2023/06/06 12:00:56;;;;;;;12.20;5.35;;;;;;;;;;4916842;29;20055;-56
2023/06/06 12:03:23;;;;;;;10.02;5.10;;;;;;;;;;4933867;28;20081;-58
2023/06/06 12:06:04;;;;;;;10.73;6.07;;;;;;;;;;4934526;29;20248;-58
2023/06/06 12:08:34;;;;;;;8.98;4.53;;;;;;;;;;4917480;29;20106;-57
2023/06/06 12:11:20;;;;;;;11.98;4.90;;;;;;;;;;4933230;28;20110;-58
2023/06/06 12:13:47;;;;;;;13.25;4.63;;;;;;;;;;4933334;28;20102;-56
2023/06/06 12:16:13;;;;;;;8.27;4.28;;;;;;;;;;4934634;28;20580;-56
2023/06/06 12:18:46;;;;;;;9.50;4.20;;;;;;;;;;4934872;29;20055;-57
2023/06/06 12:21:15;;;;;;;10.48;3.90;;;;;;;;;;4917174;29;20043;-57
2023/06/06 12:23:43;;;;;;;8.38;3.72;;;;;;;;;;4934208;28;20075;-58
2023/06/06 12:26:11;;;;;;;7.88;3.53;;;;;;;;;;4934436;28;20409;-56
2023/06/06 12:28:53;;;;;;;6.30;3.50;;;;;;;;;;4915176;28;20412;-58
2023/06/06 12:31:20;;;;;;;9.52;3.67;;;;;;;;;;4933903;29;20453;-57
2023/06/06 12:33:46;;;;;;;13.02;4.72;;;;;;;;;;4933873;28;20133;-57
2023/06/06 12:36:19;;;;;;;11.80;4.20;;;;;;;;;;4917425;29;20055;-57
2023/06/06 12:39:03;;;;;;;7.97;4.15;;;;;;;;;;4934559;29;20245;-58
2023/06/06 12:41:39;;;;;;;9.63;4.28;;;;;;;;;;4901245;29;20057;-57
2023/06/06 12:44:16;;;;;;;11.02;4.22;;;;;;;;;;4933395;28;20439;-58
2023/06/06 12:46:45;;;;;;;9.10;4.32;;;;;;;;;;4909335;29;20324;-57
2023/06/06 12:49:12;;;;;;;8.13;3.83;;;;;;;;;;4929791;28;20039;-58
2023/06/06 12:51:40;;;;;;;9.68;4.40;;;;;;;;;;4931929;29;20524;-57
2023/06/06 12:54:07;;;;;;;7.75;3.78;;;;;;;;;;4913078;28;20082;-57
2023/06/06 12:56:34;;;;;;;8.50;3.22;;;;;;;;;;4926778;28;20402;-58
2023/06/06 12:59:00;;;;;;;7.63;3.45;;;34.70;99.90;;;;;;4929924;29;20402;-58
2023/06/06 13:01:30;;;;;;;6.97;3.28;;;;;;;;;;4929826;28;20047;-57
2023/06/06 13:03:56;;;;;;;9.52;4.38;;;36.00;94.50;;;;;;4930224;28;20051;-57
2023/06/06 13:06:22;;;;;;;8.52;4.20;;;36.60;93.60;;;;;;4932052;28;20058;-58
2023/06/06 13:08:48;;;;;;;9.07;3.85;;;37.10;88.40;;;;;;4914207;29;20367;-58
2023/06/06 13:11:14;;;;;;;9.60;4.20;;;38.00;81.90;;;;;;4930815;28;20051;-58
2023/06/06 13:13:40;;;;;;;8.73;3.60;;;38.30;72.60;;;;;;4912746;29;20414;-57
2023/06/06 13:16:06;;;;;;;7.38;3.50;;;38.70;61.70;;;;;;4900634;29;20054;-57
2023/06/06 13:18:33;;;;;;;7.50;3.53;;;39.20;54.10;;;;;;4913495;29;20505;-57
2023/06/06 13:21:01;;;;;;;10.52;4.00;;;39.60;46.80;;;;;;4931813;28;20586;-57
2023/06/06 13:23:28;;;;;;;8.98;3.55;;;40.00;42.20;;;;;;4931571;28;20370;-58
2023/06/06 13:25:55;;;;;;;8.43;3.88;;;40.00;39.50;;;;;;4933898;29;20043;-57
2023/06/06 13:28:22;;;;;;;8.93;3.58;;;40.30;30.40;;;;;;4919502;28;20047;-57
2023/06/06 13:30:47;;;;;;;7.85;3.42;;;40.00;27.60;;;;;;4936507;28;20039;-58
2023/06/06 13:33:13;;;;;;;7.78;3.50;;;39.90;33.70;;;;;;4936067;28;20417;-58
2023/06/06 13:35:39;;;;;;;7.65;3.33;;;40.00;29.60;;;;;;4936076;28;20042;-58
2023/06/06 13:38:05;;;;;;;8.80;3.40;;;40.10;25.40;;;;;;4936460;29;20113;-58
2023/06/06 13:40:30;;;;;;;8.05;3.88;;;40.40;26.60;;;;;;4934307;28;20584;-57
2023/06/06 13:42:56;;;;;;;8.70;3.60;;;40.40;20.70;;;;;;4935303;28;20133;-58
2023/06/06 13:45:21;;;;;;;8.48;3.40;;;40.50;14.60;;;;;;4935746;28;20505;-56
2023/06/06 13:47:48;;;;;;;8.68;3.47;;;40.50;15.70;;;;;;4931719;29;20043;-57
2023/06/06 13:50:15;;;;;;;8.48;3.55;;;40.30;1.00;;;;;;4932543;28;20243;-58
2023/06/06 13:52:43;;;;;;;8.55;3.40;;;39.80;1.00;;;;;;4930266;29;20362;-59
2023/06/06 13:55:09;;;;;;;7.68;3.30;;;40.00;1.00;;;;;;4916257;29;20043;-59
2023/06/06 13:57:40;;;;;;;7.68;3.75;;;40.60;1.00;;;;;;4916333;29;20692;-58
2023/06/06 14:00:08;;;;;;;8.27;3.92;;;41.20;1.00;;;;;;4918291;29;20054;-58
2023/06/06 14:02:34;;;;;;;7.80;3.10;;;41.10;1.00;;;;;;4931754;29;20093;-57
2023/06/06 14:05:00;;;;;;;6.25;3.00;;;41.30;1.00;;;;;;4931647;29;20035;-58
2023/06/06 14:07:26;;;;;;;6.75;3.50;;;41.30;1.00;;;;;;4934973;28;20043;-57
2023/06/06 14:09:51;;;;;;;7.40;2.83;;;41.50;1.00;;;;;;4918372;29;20154;-58
2023/06/06 14:12:17;;;;;;;8.20;3.08;;;41.50;1.00;;;;;;4932156;29;20409;-58
2023/06/06 14:14:43;;;;;;;7.90;3.03;;;41.80;1.00;;;;;;4930727;28;20098;-58
2023/06/06 14:17:08;;;;;;;7.78;3.25;;;41.80;1.00;;;;;;4932867;29;20054;-58
2023/06/06 14:19:38;;;;;;;8.40;3.40;;;42.20;1.00;;;;;;4936031;29;20031;-58
2023/06/06 14:22:29;;;;;;;7.63;3.65;;;41.90;1.00;;;;;;4932607;28;20082;-58
2023/06/06 14:24:56;;;;;;;8.93;3.35;;;42.20;1.00;;;;;;4912867;29;20051;-57
2023/06/06 14:27:29;;;;;;;8.43;3.70;;;41.70;1.00;;;;;;4930384;29;20039;-58